Sedges Garden, North Carolina
Current Conditions -  °F | °C
As of 8:54 PM on Monday 20 Oct 2014 (Local Time) from KINT Reporting Station
Few Clouds Few Clouds  
Wind Chill: 63°   Ceiling: Unl
Heat Index: 63°   Visibility: 10mi
Dew Point: 48°   Wind: 5mph
Humidity: 58%   Direction: 180°S
Pressure: 29.99"   Gusts: NA
Location:  36.165°N, 80.2349°W
Report Text: KINT 210054Z 18004KT 10SM FEW095 17/09 A2999 RMK AO2 RAB29E45 SLP151 P0000 T01720089
Loading
Personal Weather Stations






























Interactive Weather Map
Tropical Storm Tracking
New forecast layout! Learn more

10-Day Weather Forecast

Advertisements
Track Severe Weather on mobile